Terminal Aerodrome Forecast
Issued by NWS

Home | Current Version | Previous Version | Text Only | Print | Product List | Glossary On
Versions: 1 2 3 4 5 6 7 8 9 10 11 12 13 14 15 16 17
016
FTUS43 KDVN 312334
TAFBRL
TAF
KBRL 312334Z 0100/0124 17007KT P6SM VCSH BKN080
      TEMPO 0101/0104 3SM -TSRA BKN035CB
     FM010400 VRB03KT 4SM -SHRA VCTS BKN040CB
     FM010800 23004KT P6SM BKN060
     FM011500 29007KT P6SM BKN150=

USA.gov is the U.S. government's official web portal to all federal, state and local government web resources and services.